^^
Meteo Knjazevac Station Historical Data
Daily Summary for May 20, 2022 Units:  Metric    English   Both
Daily Weekly Monthly Yearly Custom
  High: Low: Average:
Temperature: 29.6 °C 3.8 °C 17.3 °C
Dew Point: 10.1 °C 1.5 °C 5.9 °C
Humidity: 88% 23% 53%
Wind Speed: 12.9km/h 0km/h 4.3km/h
Wind Gust: 22.5km/h - -
Wind- - WSW
Pressure: 1028 hPa 1021.9 hPa -
Precipitation: 0 mm    
Historical Graphs
 
 
Tabular Data for May 20, 2022
Time Temperature Dew Point Pressure Wind Wind Speed Wind Gust Humidity Rainfall Rate (Hourly) solar Conditions
00:00 9.2 °C 3.9 °C 1027.3 hPa Calm   3.2 km/h 70% 0 mm 0 W/m2
00:10 8.8 °C 4 °C 1027.3 hPa NNW 1.6 km/h 3.2 km/h 72% 0 mm 0 W/m2
00:20 8.4 °C 3.9 °C 1027.3 hPa West 1.6 km/h 3.2 km/h 73% 0 mm 0 W/m2
00:30 8 °C 3.4 °C 1027.3 hPa WNW 1.6 km/h 3.2 km/h 73% 0 mm 0 W/m2
00:50 7.5 °C 3.3 °C 1027.3 hPa WNW 1.6 km/h 3.2 km/h 75% 0 mm 0 W/m2
01:00 7.3 °C 3.2 °C 1027.3 hPa WNW 3.2 km/h 4.8 km/h 75% 0 mm 0 W/m2
01:20 6.9 °C 3.2 °C 1027.3 hPa West 3.2 km/h 3.2 km/h 77% 0 mm 0 W/m2
01:30 6.7 °C 3.1 °C 1027.3 hPa West 4.8 km/h 6.4 km/h 78% 0 mm 0 W/m2
01:40 6.6 °C 3.2 °C 1027.3 hPa West 3.2 km/h 8 km/h 79% 0 mm 0 W/m2
02:00 6.3 °C 2.9 °C 1027.3 hPa Calm   4.8 km/h 79% 0 mm 0 W/m2
02:10 6.1 °C 2.7 °C 1027.3 hPa WNW 3.2 km/h 3.2 km/h 79% 0 mm 0 W/m2
02:20 5.8 °C 2.4 °C 1027.3 hPa WNW 3.2 km/h 4.8 km/h 79% 0 mm 0 W/m2
02:30 5.5 °C 2.3 °C 1027.3 hPa West 1.6 km/h 4.8 km/h 80% 0 mm 0 W/m2
02:40 5.3 °C 2.1 °C 1027.3 hPa West 3.2 km/h 6.4 km/h 80% 0 mm 0 W/m2
02:50 5.2 °C 2.2 °C 1027.3 hPa West 3.2 km/h 6.4 km/h 81% 0 mm 0 W/m2
03:00 5.2 °C 2.2 °C 1027.3 hPa WNW 1.6 km/h 4.8 km/h 81% 0 mm 0 W/m2
03:10 5 °C 2 °C 1027.3 hPa WNW 1.6 km/h 4.8 km/h 81% 0 mm 0 W/m2
03:20 4.8 °C 2.2 °C 1027.3 hPa West 1.6 km/h 4.8 km/h 83% 0 mm 0 W/m2
03:30 4.6 °C 1.9 °C 1027.3 hPa WNW 1.6 km/h 4.8 km/h 83% 0 mm 0 W/m2
03:40 4.5 °C 1.9 °C 1027.3 hPa West 3.2 km/h 6.4 km/h 83% 0 mm 0 W/m2
03:50 4.5 °C 2.1 °C 1027.3 hPa WNW 3.2 km/h 6.4 km/h 84% 0 mm 0 W/m2
04:10 4.4 °C 1.9 °C 1027.3 hPa NW 3.2 km/h 8 km/h 84% 0 mm 0 W/m2
04:20 4.3 °C 1.8 °C 1027.3 hPa WNW 3.2 km/h 6.4 km/h 84% 0 mm 0 W/m2
04:30 4.2 °C 1.7 °C 1027.3 hPa WNW 3.2 km/h 8 km/h 84% 0 mm 0 W/m2
04:40 4.1 °C 1.7 °C 1027.7 hPa WNW 1.6 km/h 4.8 km/h 84% 0 mm 0 W/m2
04:50 4.1 °C 1.8 °C 1027.7 hPa WNW 3.2 km/h 4.8 km/h 85% 0 mm 0 W/m2
05:00 4 °C 1.7 °C 1027.7 hPa WNW 1.6 km/h 4.8 km/h 85% 0 mm 0 W/m2
05:10 4 °C 1.7 °C 1027.7 hPa West 3.2 km/h 6.4 km/h 85% 0 mm 7 W/m2
05:20 3.9 °C 1.6 °C 1027.7 hPa West 3.2 km/h 8 km/h 85% 0 mm 14 W/m2
05:30 3.8 °C 1.5 °C 1027.7 hPa WNW 3.2 km/h 4.8 km/h 85% 0 mm 19 W/m2
05:40 3.9 °C 1.8 °C 1027.7 hPa West 3.2 km/h 6.4 km/h 86% 0 mm 27 W/m2
05:50 3.8 °C 1.5 °C 1027.7 hPa NW 3.2 km/h 6.4 km/h 85% 0 mm 33 W/m2
06:00 3.9 °C 1.8 °C 1028 hPa WNW 1.6 km/h 6.4 km/h 86% 0 mm 80 W/m2
06:10 4 °C 1.9 °C 1028 hPa WNW 1.6 km/h 6.4 km/h 86% 0 mm 106 W/m2
06:20 4.3 °C 2.4 °C 1028 hPa WNW 3.2 km/h 8 km/h 88% 0 mm 100 W/m2
06:30 4.5 °C 2.7 °C 1028 hPa West 3.2 km/h 8 km/h 88% 0 mm 154 W/m2
06:40 4.9 °C 3.1 °C 1028 hPa WNW 1.6 km/h 4.8 km/h 88% 0 mm 183 W/m2
06:50 5.6 °C 3.7 °C 1028 hPa Calm   4.8 km/h 88% 0 mm 212 W/m2
07:00 6.1 °C 3.9 °C 1028 hPa WNW 1.6 km/h 4.8 km/h 86% 0 mm 239 W/m2
07:10 6.6 °C 4.4 °C 1028 hPa NW 1.6 km/h 3.2 km/h 86% 0 mm 274 W/m2
07:20 7.2 °C 4.8 °C 1028 hPa Calm   4.8 km/h 85% 0 mm 306 W/m2
07:30 7.9 °C 5.3 °C 1027.7 hPa WNW 3.2 km/h 6.4 km/h 83% 0 mm 339 W/m2
07:40 8.8 °C 5.7 °C 1027.7 hPa Calm   4.8 km/h 81% 0 mm 371 W/m2
07:50 9.4 °C 6.2 °C 1027.7 hPa Calm   3.2 km/h 80% 0 mm 403 W/m2
08:00 10.3 °C 6.6 °C 1027.7 hPa NNW 1.6 km/h 4.8 km/h 78% 0 mm 435 W/m2
08:20 12.6 °C 8 °C 1027.7 hPa ESE 1.6 km/h 4.8 km/h 74% 0 mm 502 W/m2
08:30 14.3 °C 8.5 °C 1027.7 hPa SE 3.2 km/h 8 km/h 68% 0 mm 534 W/m2
08:40 15.8 °C 8.9 °C 1027.7 hPa SSE 3.2 km/h 8 km/h 64% 0 mm 569 W/m2
08:50 16.9 °C 9.6 °C 1027.7 hPa ESE 3.2 km/h 11.3 km/h 62% 0 mm 610 W/m2
09:00 17.9 °C 9.5 °C 1027.3 hPa SSE 3.2 km/h 11.3 km/h 58% 0 mm 646 W/m2
09:10 18.8 °C 8.7 °C 1027.3 hPa SW 9.7 km/h 16.1 km/h 52% 0 mm 678 W/m2
09:20 19.4 °C 8.7 °C 1027.3 hPa SW 9.7 km/h 16.1 km/h 50% 0 mm 706 W/m2
09:30 20 °C 8.7 °C 1027.3 hPa SW 9.7 km/h 17.7 km/h 48% 0 mm 728 W/m2
09:40 20.4 °C 8.1 °C 1027.3 hPa SW 11.3 km/h 19.3 km/h 45% 0 mm 754 W/m2
09:50 20.8 °C 8.1 °C 1027 hPa SW 11.3 km/h 19.3 km/h 44% 0 mm 777 W/m2
10:00 21.1 °C 7.7 °C 1027 hPa SW 11.3 km/h 19.3 km/h 42% 0 mm 798 W/m2
10:10 21.5 °C 8.4 °C 1026.6 hPa SW 9.7 km/h 22.5 km/h 43% 0 mm 818 W/m2
10:20 21.9 °C 7.7 °C 1026.6 hPa SW 11.3 km/h 14.5 km/h 40% 0 mm 837 W/m2
10:30 22.3 °C 7.3 °C 1026.6 hPa SSW 8 km/h 14.5 km/h 38% 0 mm 855 W/m2
10:40 22.8 °C 8.1 °C 1026.6 hPa SW 4.8 km/h 11.3 km/h 39% 0 mm 91 W/m2
10:50 23.2 °C 8.1 °C 1026.6 hPa SW 4.8 km/h 14.5 km/h 38% 0 mm 886 W/m2
11:00 23.2 °C 8.8 °C 1026.6 hPa South 4.8 km/h 14.5 km/h 40% 0 mm 900 W/m2
11:10 23.6 °C 9.2 °C 1026.3 hPa SW 8 km/h 16.1 km/h 40% 0 mm 208 W/m2
11:20 23.9 °C 9.1 °C 1026.3 hPa SW 8 km/h 16.1 km/h 39% 0 mm 922 W/m2
11:30 24.2 °C 9.4 °C 1026.3 hPa SW 4.8 km/h 14.5 km/h 39% 0 mm 925 W/m2
11:40 24.4 °C 9.2 °C 1026 hPa SSW 8 km/h 12.9 km/h 38% 0 mm 807 W/m2
11:50 24.9 °C 10 °C 1026 hPa SW 8 km/h 14.5 km/h 39% 0 mm 946 W/m2
12:00 25.1 °C 9.8 °C 1026 hPa SW 8 km/h 16.1 km/h 38% 0 mm 950 W/m2
12:10 25.4 °C 10.1 °C 1025.6 hPa SW 8 km/h 14.5 km/h 38% 0 mm 953 W/m2
12:20 25.6 °C 9.8 °C 1025.6 hPa South 3.2 km/h 9.7 km/h 37% 0 mm 955 W/m2
12:30 25.9 °C 10.1 °C 1025.3 hPa SW 3.2 km/h 11.3 km/h 37% 0 mm 955 W/m2
12:40 26.1 °C 9 °C 1025.3 hPa South 4.8 km/h 12.9 km/h 34% 0 mm 953 W/m2
12:50 26.5 °C 9.3 °C 1025.3 hPa NNW 3.2 km/h 12.9 km/h 34% 0 mm 935 W/m2
13:00 27.1 °C 9.4 °C 1025.3 hPa SW 4.8 km/h 11.3 km/h 33% 0 mm 489 W/m2
13:10 27.1 °C 8.5 °C 1024.9 hPa SSE 4.8 km/h 14.5 km/h 31% 0 mm 940 W/m2
13:20 27.3 °C 9.1 °C 1024.9 hPa NE 4.8 km/h 9.7 km/h 32% 0 mm 932 W/m2
13:30 27.6 °C 8.4 °C 1024.6 hPa NE 3.2 km/h 14.5 km/h 30% 0 mm 923 W/m2
13:40 27.5 °C 8.4 °C 1024.6 hPa ESE 4.8 km/h 12.9 km/h 30% 0 mm 912 W/m2
13:50 27.9 °C 9.7 °C 1024.3 hPa SSW 4.8 km/h 12.9 km/h 32% 0 mm 900 W/m2
14:00 28.3 °C 9.6 °C 1024.3 hPa SW 4.8 km/h 11.3 km/h 31% 0 mm 886 W/m2
14:10 28.2 °C 9.9 °C 1024.3 hPa SSW 3.2 km/h 11.3 km/h 32% 0 mm 871 W/m2
14:20 28.3 °C 8.6 °C 1023.9 hPa SSW 4.8 km/h 14.5 km/h 29% 0 mm 855 W/m2
14:30 28.3 °C 8.6 °C 1023.9 hPa SSE 9.7 km/h 17.7 km/h 29% 0 mm 837 W/m2
14:40 28.5 °C 8.7 °C 1023.9 hPa SSW 8 km/h 12.9 km/h 29% 0 mm 819 W/m2
14:50 28.6 °C 9.3 °C 1023.9 hPa SW 4.8 km/h 12.9 km/h 30% 0 mm 798 W/m2
15:00 28.7 °C 9.4 °C 1023.6 hPa SW 4.8 km/h 12.9 km/h 30% 0 mm 777 W/m2
15:10 28.9 °C 9.1 °C 1023.6 hPa SW 4.8 km/h 11.3 km/h 29% 0 mm 755 W/m2
15:20 28.7 °C 9.4 °C 1023.6 hPa SSW 4.8 km/h 12.9 km/h 30% 0 mm 731 W/m2
15:30 29.1 °C 9.7 °C 1023.2 hPa SSW 3.2 km/h 9.7 km/h 30% 0 mm 706 W/m2
15:40 29.2 °C 9.8 °C 1023.2 hPa SW 4.8 km/h 11.3 km/h 30% 0 mm 681 W/m2
15:50 29.3 °C 8.9 °C 1023.2 hPa West 8 km/h 16.1 km/h 28% 0 mm 654 W/m2
16:00 29.4 °C 9.5 °C 1023.2 hPa West 3.2 km/h 11.3 km/h 29% 0 mm 627 W/m2
16:10 29.6 °C 9.7 °C 1022.9 hPa West 8 km/h 16.1 km/h 29% 0 mm 599 W/m2
16:20 29.3 °C 9.4 °C 1022.9 hPa WSW 9.7 km/h 19.3 km/h 29% 0 mm 571 W/m2
16:30 29.2 °C 8.8 °C 1022.9 hPa SW 9.7 km/h 19.3 km/h 28% 0 mm 541 W/m2
16:40 29 °C 8.7 °C 1022.6 hPa SW 9.7 km/h 19.3 km/h 28% 0 mm 510 W/m2
16:50 29 °C 8.1 °C 1022.6 hPa SW 11.3 km/h 20.9 km/h 27% 0 mm 477 W/m2
17:00 29.1 °C 8.2 °C 1022.6 hPa SW 8 km/h 16.1 km/h 27% 0 mm 442 W/m2
17:10 29.1 °C 7.1 °C 1022.6 hPa SW 11.3 km/h 17.7 km/h 25% 0 mm 409 W/m2
17:20 28.9 °C 6.3 °C 1022.6 hPa SW 12.9 km/h 20.9 km/h 24% 0 mm 375 W/m2
17:30 28.7 °C 6.1 °C 1022.2 hPa SW 11.3 km/h 19.3 km/h 24% 0 mm 343 W/m2
17:40 28.6 °C 6.1 °C 1022.2 hPa SW 11.3 km/h 19.3 km/h 24% 0 mm 308 W/m2
17:50 28.4 °C 5.9 °C 1022.2 hPa SW 9.7 km/h 19.3 km/h 24% 0 mm 275 W/m2
18:00 28.4 °C 5.9 °C 1022.2 hPa SW 9.7 km/h 17.7 km/h 24% 0 mm 245 W/m2
18:10 28.3 °C 5.8 °C 1022.2 hPa SW 9.7 km/h 17.7 km/h 24% 0 mm 212 W/m2
18:20 28.1 °C 5 °C 1022.2 hPa SW 8 km/h 14.5 km/h 23% 0 mm 184 W/m2
18:30 27.8 °C 4.8 °C 1022.2 hPa SW 9.7 km/h 12.9 km/h 23% 0 mm 155 W/m2
18:40 26.9 °C 6.3 °C 1021.9 hPa SW 8 km/h 12.9 km/h 27% 0 mm 127 W/m2
18:50 26.4 °C 4.8 °C 1021.9 hPa WSW 3.2 km/h 11.3 km/h 25% 0 mm 101 W/m2
19:00 26.3 °C 5.8 °C 1021.9 hPa WSW 4.8 km/h 9.7 km/h 27% 0 mm 73 W/m2
19:10 26.2 °C 5.7 °C 1021.9 hPa SW 3.2 km/h 9.7 km/h 27% 0 mm 50 W/m2
19:20 25.8 °C 6.4 °C 1021.9 hPa SW 3.2 km/h 8 km/h 29% 0 mm 26 W/m2
19:30 25.1 °C 6.3 °C 1021.9 hPa SW 3.2 km/h 8 km/h 30% 0 mm 18 W/m2
19:40 24.1 °C 6.4 °C 1021.9 hPa South 1.6 km/h 4.8 km/h 32% 0 mm 12 W/m2
19:50 23.1 °C 5.9 °C 1022.2 hPa South 1.6 km/h 8 km/h 33% 0 mm 3 W/m2
20:00 22.2 °C 6 °C 1021.9 hPa SSW 3.2 km/h 6.4 km/h 35% 0 mm 0 W/m2
20:10 21.3 °C 6.8 °C 1021.9 hPa WSW 3.2 km/h 8 km/h 39% 0 mm 0 W/m2
20:20 20.5 °C 7.5 °C 1022.2 hPa WSW 3.2 km/h 6.4 km/h 43% 0 mm 0 W/m2
20:30 19.7 °C 6.8 °C 1022.2 hPa WSW 1.6 km/h 8 km/h 43% 0 mm 0 W/m2
20:40 19.1 °C 6.5 °C 1022.2 hPa West 1.6 km/h 4.8 km/h 44% 0 mm 0 W/m2
20:50 18.4 °C 6.9 °C 1022.2 hPa West 1.6 km/h 4.8 km/h 47% 0 mm 0 W/m2
21:00 17.7 °C 6.6 °C 1022.2 hPa NW 1.6 km/h 4.8 km/h 48% 0 mm 0 W/m2
21:10 17.1 °C 6 °C 1022.2 hPa West 1.6 km/h 3.2 km/h 48% 0 mm 0 W/m2
21:20 16.6 °C 5.8 °C 1022.2 hPa NW 1.6 km/h 6.4 km/h 49% 0 mm 0 W/m2
21:30 16 °C 5.6 °C 1022.2 hPa West 1.6 km/h 3.2 km/h 50% 0 mm 0 W/m2
21:40 15.4 °C 5.8 °C 1022.2 hPa WNW 3.2 km/h 6.4 km/h 53% 0 mm 0 W/m2
21:50 14.4 °C 5.2 °C 1022.2 hPa WNW 1.6 km/h 6.4 km/h 54% 0 mm 0 W/m2
22:00 13.8 °C 4.7 °C 1021.9 hPa West 3.2 km/h 8 km/h 54% 0 mm 0 W/m2
22:10 13.6 °C 4.4 °C 1021.9 hPa West 1.6 km/h 4.8 km/h 54% 0 mm 0 W/m2
22:20 13.2 °C 4.3 °C 1021.9 hPa WNW 1.6 km/h 8 km/h 55% 0 mm 0 W/m2
22:30 12.9 °C 4.1 °C 1021.9 hPa Calm   3.2 km/h 55% 0 mm 0 W/m2
22:40 12.4 °C 4.4 °C 1021.9 hPa Calm   3.2 km/h 58% 0 mm 0 W/m2
22:50 11.9 °C 4.2 °C 1021.9 hPa West 1.6 km/h 3.2 km/h 59% 0 mm 0 W/m2
23:00 11.4 °C 3.7 °C 1022.2 hPa WNW 1.6 km/h 4.8 km/h 59% 0 mm 0 W/m2
23:10 10.9 °C 3.4 °C 1022.2 hPa West 1.6 km/h 4.8 km/h 60% 0 mm 0 W/m2
23:20 10.3 °C 3.3 °C 1021.9 hPa WSW 4.8 km/h 9.7 km/h 62% 0 mm 0 W/m2
23:30 10.1 °C 3.2 °C 1021.9 hPa WNW 3.2 km/h 8 km/h 62% 0 mm 0 W/m2
23:40 10.1 °C 3.2 °C 1021.9 hPa West 3.2 km/h 6.4 km/h 62% 0 mm 0 W/m2
23:50 9.9 °C 3.2 °C 1021.9 hPa NW 3.2 km/h 6.4 km/h 63% 0 mm 0 W/m2
Knjazevac, Serbia
Compliments of Weather Underground - 2 mb